sensor_id;sensor_type;location;lat;lon;timestamp;temperature;humidity
11152;DHT22;5630;49.342;10.802;2024-02-04T00:00:28;7.20;99.90
11152;DHT22;5630;49.342;10.802;2024-02-04T00:02:53;7.20;99.90
11152;DHT22;5630;49.342;10.802;2024-02-04T00:05:19;7.20;99.90
11152;DHT22;5630;49.342;10.802;2024-02-04T00:07:45;7.20;99.90
11152;DHT22;5630;49.342;10.802;2024-02-04T00:10:10;7.10;99.90
11152;DHT22;5630;49.342;10.802;2024-02-04T00:12:36;7.10;99.90
11152;DHT22;5630;49.342;10.802;2024-02-04T00:15:02;7.10;99.90
11152;DHT22;5630;49.342;10.802;2024-02-04T00:17:30;7.10;99.90
11152;DHT22;5630;49.342;10.802;2024-02-04T00:20:01;7.10;99.90
11152;DHT22;5630;49.342;10.802;2024-02-04T00:22:28;7.20;99.90
11152;DHT22;5630;49.342;10.802;2024-02-04T00:24:54;7.20;99.90
11152;DHT22;5630;49.342;10.802;2024-02-04T00:27:19;7.20;99.90
11152;DHT22;5630;49.342;10.802;2024-02-04T00:29:45;7.20;99.90
11152;DHT22;5630;49.342;10.802;2024-02-04T00:32:11;7.20;99.90
11152;DHT22;5630;49.342;10.802;2024-02-04T00:34:36;7.20;99.90
11152;DHT22;5630;49.342;10.802;2024-02-04T00:37:02;7.20;99.90
11152;DHT22;5630;49.342;10.802;2024-02-04T00:39:28;7.20;99.90
11152;DHT22;5630;49.342;10.802;2024-02-04T00:41:53;7.20;99.90
11152;DHT22;5630;49.342;10.802;2024-02-04T00:44:19;7.20;99.90
11152;DHT22;5630;49.342;10.802;2024-02-04T00:46:45;7.30;99.90
11152;DHT22;5630;49.342;10.802;2024-02-04T00:49:10;7.30;99.90
11152;DHT22;5630;49.342;10.802;2024-02-04T00:51:36;7.20;99.90
11152;DHT22;5630;49.342;10.802;2024-02-04T00:54:01;7.10;99.90
11152;DHT22;5630;49.342;10.802;2024-02-04T00:56:27;7.20;99.90
11152;DHT22;5630;49.342;10.802;2024-02-04T00:58:52;7.20;99.90
11152;DHT22;5630;49.342;10.802;2024-02-04T01:01:18;7.10;99.90
11152;DHT22;5630;49.342;10.802;2024-02-04T01:03:45;7.10;99.90
11152;DHT22;5630;49.342;10.802;2024-02-04T01:06:10;7.00;99.90
11152;DHT22;5630;49.342;10.802;2024-02-04T01:08:36;7.10;99.90
11152;DHT22;5630;49.342;10.802;2024-02-04T01:11:05;7.00;99.90
11152;DHT22;5630;49.342;10.802;2024-02-04T01:13:31;7.00;99.90
11152;DHT22;5630;49.342;10.802;2024-02-04T01:15:57;7.00;99.90
11152;DHT22;5630;49.342;10.802;2024-02-04T01:18:22;7.00;99.90
11152;DHT22;5630;49.342;10.802;2024-02-04T01:20:48;7.00;99.90
11152;DHT22;5630;49.342;10.802;2024-02-04T01:23:14;7.00;99.90
11152;DHT22;5630;49.342;10.802;2024-02-04T01:25:43;7.00;99.90
11152;DHT22;5630;49.342;10.802;2024-02-04T01:28:08;6.90;99.90
11152;DHT22;5630;49.342;10.802;2024-02-04T01:30:34;6.90;99.90
11152;DHT22;5630;49.342;10.802;2024-02-04T01:32:59;6.90;99.90
11152;DHT22;5630;49.342;10.802;2024-02-04T01:35:25;7.00;99.90
11152;DHT22;5630;49.342;10.802;2024-02-04T01:37:50;7.00;99.90
11152;DHT22;5630;49.342;10.802;2024-02-04T01:40:16;7.00;99.90
11152;DHT22;5630;49.342;10.802;2024-02-04T01:42:41;7.00;99.90
11152;DHT22;5630;49.342;10.802;2024-02-04T01:45:07;6.90;99.90
11152;DHT22;5630;49.342;10.802;2024-02-04T01:47:33;7.00;99.90
11152;DHT22;5630;49.342;10.802;2024-02-04T01:49:59;7.00;99.90
11152;DHT22;5630;49.342;10.802;2024-02-04T01:52:26;7.00;99.90
11152;DHT22;5630;49.342;10.802;2024-02-04T01:54:52;7.00;99.90
11152;DHT22;5630;49.342;10.802;2024-02-04T01:57:18;7.00;99.90
11152;DHT22;5630;49.342;10.802;2024-02-04T01:59:45;7.00;99.90
11152;DHT22;5630;49.342;10.802;2024-02-04T02:02:11;7.10;99.90
11152;DHT22;5630;49.342;10.802;2024-02-04T02:04:36;7.10;99.90
11152;DHT22;5630;49.342;10.802;2024-02-04T02:07:02;7.00;99.90
11152;DHT22;5630;49.342;10.802;2024-02-04T02:09:28;7.00;99.90
11152;DHT22;5630;49.342;10.802;2024-02-04T02:12:11;7.00;99.90
11152;DHT22;5630;49.342;10.802;2024-02-04T02:14:41;7.00;99.90
11152;DHT22;5630;49.342;10.802;2024-02-04T02:17:11;7.00;99.90
11152;DHT22;5630;49.342;10.802;2024-02-04T02:19:59;7.00;99.90
11152;DHT22;5630;49.342;10.802;2024-02-04T02:22:49;7.00;99.90
11152;DHT22;5630;49.342;10.802;2024-02-04T02:25:18;7.00;99.90
11152;DHT22;5630;49.342;10.802;2024-02-04T02:27:50;6.90;99.90
11152;DHT22;5630;49.342;10.802;2024-02-04T02:30:17;6.90;99.90
11152;DHT22;5630;49.342;10.802;2024-02-04T02:32:44;7.00;99.90
11152;DHT22;5630;49.342;10.802;2024-02-04T02:35:11;6.90;99.90
11152;DHT22;5630;49.342;10.802;2024-02-04T02:37:49;6.90;99.90
11152;DHT22;5630;49.342;10.802;2024-02-04T02:40:26;6.90;99.90
11152;DHT22;5630;49.342;10.802;2024-02-04T02:42:55;7.00;99.90
11152;DHT22;5630;49.342;10.802;2024-02-04T02:45:23;6.90;99.90
11152;DHT22;5630;49.342;10.802;2024-02-04T02:47:50;6.90;99.90
11152;DHT22;5630;49.342;10.802;2024-02-04T02:50:16;6.90;99.90
11152;DHT22;5630;49.342;10.802;2024-02-04T02:52:42;6.90;99.90
11152;DHT22;5630;49.342;10.802;2024-02-04T02:55:08;6.90;99.90
11152;DHT22;5630;49.342;10.802;2024-02-04T02:57:33;6.90;99.90
11152;DHT22;5630;49.342;10.802;2024-02-04T02:59:59;6.90;99.90
11152;DHT22;5630;49.342;10.802;2024-02-04T03:02:24;6.90;99.90
11152;DHT22;5630;49.342;10.802;2024-02-04T03:04:50;6.90;99.90
11152;DHT22;5630;49.342;10.802;2024-02-04T03:07:15;7.00;99.90
11152;DHT22;5630;49.342;10.802;2024-02-04T03:09:41;6.90;99.90
11152;DHT22;5630;49.342;10.802;2024-02-04T03:12:06;7.00;99.90
11152;DHT22;5630;49.342;10.802;2024-02-04T03:14:32;7.00;99.90
11152;DHT22;5630;49.342;10.802;2024-02-04T03:16:58;7.00;99.90
11152;DHT22;5630;49.342;10.802;2024-02-04T03:19:23;7.00;99.90
11152;DHT22;5630;49.342;10.802;2024-02-04T03:21:49;7.00;99.90
11152;DHT22;5630;49.342;10.802;2024-02-04T03:24:15;6.90;99.90
11152;DHT22;5630;49.342;10.802;2024-02-04T03:26:40;6.90;99.90
11152;DHT22;5630;49.342;10.802;2024-02-04T03:29:06;6.90;99.90
11152;DHT22;5630;49.342;10.802;2024-02-04T03:31:31;6.90;99.90
11152;DHT22;5630;49.342;10.802;2024-02-04T03:33:57;6.90;99.90
11152;DHT22;5630;49.342;10.802;2024-02-04T03:36:23;7.00;99.90
11152;DHT22;5630;49.342;10.802;2024-02-04T03:38:52;7.00;99.90
11152;DHT22;5630;49.342;10.802;2024-02-04T03:41:18;7.00;99.90
11152;DHT22;5630;49.342;10.802;2024-02-04T03:43:44;6.90;99.90
11152;DHT22;5630;49.342;10.802;2024-02-04T03:46:14;6.90;99.90
11152;DHT22;5630;49.342;10.802;2024-02-04T03:48:40;6.90;99.90
11152;DHT22;5630;49.342;10.802;2024-02-04T03:51:05;6.90;99.90
11152;DHT22;5630;49.342;10.802;2024-02-04T03:53:31;6.90;99.90
11152;DHT22;5630;49.342;10.802;2024-02-04T03:55:57;7.00;99.90
11152;DHT22;5630;49.342;10.802;2024-02-04T03:58:22;7.00;99.90
11152;DHT22;5630;49.342;10.802;2024-02-04T04:00:55;7.00;99.90
11152;DHT22;5630;49.342;10.802;2024-02-04T04:03:20;7.00;99.90
11152;DHT22;5630;49.342;10.802;2024-02-04T04:05:46;6.90;99.90
11152;DHT22;5630;49.342;10.802;2024-02-04T04:08:12;6.90;99.90
11152;DHT22;5630;49.342;10.802;2024-02-04T04:10:38;6.90;99.90
11152;DHT22;5630;49.342;10.802;2024-02-04T04:13:03;7.00;99.90
11152;DHT22;5630;49.342;10.802;2024-02-04T04:15:29;6.90;99.90
11152;DHT22;5630;49.342;10.802;2024-02-04T04:17:54;6.90;99.90
11152;DHT22;5630;49.342;10.802;2024-02-04T04:20:20;6.90;99.90
11152;DHT22;5630;49.342;10.802;2024-02-04T04:22:45;6.90;99.90
11152;DHT22;5630;49.342;10.802;2024-02-04T04:25:11;6.90;99.90
11152;DHT22;5630;49.342;10.802;2024-02-04T04:27:36;6.90;99.90
11152;DHT22;5630;49.342;10.802;2024-02-04T04:30:02;6.90;99.90
11152;DHT22;5630;49.342;10.802;2024-02-04T04:32:28;6.90;99.90
11152;DHT22;5630;49.342;10.802;2024-02-04T04:34:53;6.90;99.90
11152;DHT22;5630;49.342;10.802;2024-02-04T04:37:20;6.90;99.90
11152;DHT22;5630;49.342;10.802;2024-02-04T04:39:46;6.90;99.90
11152;DHT22;5630;49.342;10.802;2024-02-04T04:42:11;6.90;99.90
11152;DHT22;5630;49.342;10.802;2024-02-04T04:44:37;6.80;99.90
11152;DHT22;5630;49.342;10.802;2024-02-04T04:47:03;6.80;99.90
11152;DHT22;5630;49.342;10.802;2024-02-04T04:49:28;6.80;99.90
11152;DHT22;5630;49.342;10.802;2024-02-04T04:51:54;6.80;99.90
11152;DHT22;5630;49.342;10.802;2024-02-04T04:54:19;6.70;99.90
11152;DHT22;5630;49.342;10.802;2024-02-04T04:56:45;6.80;99.90
11152;DHT22;5630;49.342;10.802;2024-02-04T04:59:10;6.80;99.90
11152;DHT22;5630;49.342;10.802;2024-02-04T05:01:36;6.80;99.90
11152;DHT22;5630;49.342;10.802;2024-02-04T05:04:01;6.80;99.90
11152;DHT22;5630;49.342;10.802;2024-02-04T05:06:27;6.80;99.90
11152;DHT22;5630;49.342;10.802;2024-02-04T05:08:53;6.70;99.90
11152;DHT22;5630;49.342;10.802;2024-02-04T05:11:18;6.80;99.90
11152;DHT22;5630;49.342;10.802;2024-02-04T05:13:44;6.80;99.90
11152;DHT22;5630;49.342;10.802;2024-02-04T05:16:09;6.70;99.90
11152;DHT22;5630;49.342;10.802;2024-02-04T05:18:35;6.80;99.90
11152;DHT22;5630;49.342;10.802;2024-02-04T05:21:01;6.80;99.90
11152;DHT22;5630;49.342;10.802;2024-02-04T05:23:28;6.80;99.90
11152;DHT22;5630;49.342;10.802;2024-02-04T05:25:53;6.80;99.90
11152;DHT22;5630;49.342;10.802;2024-02-04T05:28:19;6.80;99.90
11152;DHT22;5630;49.342;10.802;2024-02-04T05:30:44;6.80;99.90
11152;DHT22;5630;49.342;10.802;2024-02-04T05:33:13;6.70;99.90
11152;DHT22;5630;49.342;10.802;2024-02-04T05:35:39;6.70;99.90
11152;DHT22;5630;49.342;10.802;2024-02-04T05:38:08;6.70;99.90
11152;DHT22;5630;49.342;10.802;2024-02-04T05:40:33;6.70;99.90
11152;DHT22;5630;49.342;10.802;2024-02-04T05:42:59;6.70;99.90
11152;DHT22;5630;49.342;10.802;2024-02-04T05:45:24;6.70;99.90
11152;DHT22;5630;49.342;10.802;2024-02-04T05:47:50;6.70;99.90
11152;DHT22;5630;49.342;10.802;2024-02-04T05:50:15;6.70;99.90
11152;DHT22;5630;49.342;10.802;2024-02-04T05:52:41;6.70;99.90
11152;DHT22;5630;49.342;10.802;2024-02-04T05:55:07;6.70;99.90
11152;DHT22;5630;49.342;10.802;2024-02-04T05:57:32;6.70;99.90
11152;DHT22;5630;49.342;10.802;2024-02-04T05:59:58;6.70;99.90
11152;DHT22;5630;49.342;10.802;2024-02-04T06:02:24;6.70;99.90
11152;DHT22;5630;49.342;10.802;2024-02-04T06:04:50;6.70;99.90
11152;DHT22;5630;49.342;10.802;2024-02-04T06:07:15;6.70;99.90
11152;DHT22;5630;49.342;10.802;2024-02-04T06:09:41;6.70;99.90
11152;DHT22;5630;49.342;10.802;2024-02-04T06:12:07;6.70;99.90
11152;DHT22;5630;49.342;10.802;2024-02-04T06:14:33;6.70;99.90
11152;DHT22;5630;49.342;10.802;2024-02-04T06:17:00;6.70;99.90
11152;DHT22;5630;49.342;10.802;2024-02-04T06:19:25;6.60;99.90
11152;DHT22;5630;49.342;10.802;2024-02-04T06:21:51;6.70;99.90
11152;DHT22;5630;49.342;10.802;2024-02-04T06:24:16;6.70;99.90
11152;DHT22;5630;49.342;10.802;2024-02-04T06:26:42;6.60;99.90
11152;DHT22;5630;49.342;10.802;2024-02-04T06:29:07;6.70;99.90
11152;DHT22;5630;49.342;10.802;2024-02-04T06:31:33;6.70;99.90
11152;DHT22;5630;49.342;10.802;2024-02-04T06:33:58;6.70;99.90
11152;DHT22;5630;49.342;10.802;2024-02-04T06:36:24;6.70;99.90
11152;DHT22;5630;49.342;10.802;2024-02-04T06:38:50;6.70;99.90
11152;DHT22;5630;49.342;10.802;2024-02-04T06:41:15;6.70;99.90
11152;DHT22;5630;49.342;10.802;2024-02-04T06:43:41;6.70;99.90
11152;DHT22;5630;49.342;10.802;2024-02-04T06:46:06;6.70;99.90
11152;DHT22;5630;49.342;10.802;2024-02-04T06:48:32;6.70;99.90
11152;DHT22;5630;49.342;10.802;2024-02-04T06:51:03;6.70;99.90
11152;DHT22;5630;49.342;10.802;2024-02-04T06:53:31;6.70;99.90
11152;DHT22;5630;49.342;10.802;2024-02-04T06:55:57;6.60;99.90
11152;DHT22;5630;49.342;10.802;2024-02-04T06:58:23;6.70;99.90
11152;DHT22;5630;49.342;10.802;2024-02-04T07:00:48;6.70;99.90
11152;DHT22;5630;49.342;10.802;2024-02-04T07:03:14;6.70;99.90
11152;DHT22;5630;49.342;10.802;2024-02-04T07:05:40;6.70;99.90
11152;DHT22;5630;49.342;10.802;2024-02-04T07:08:06;6.70;99.90
11152;DHT22;5630;49.342;10.802;2024-02-04T07:10:34;6.70;99.90
11152;DHT22;5630;49.342;10.802;2024-02-04T07:13:00;6.80;99.90
11152;DHT22;5630;49.342;10.802;2024-02-04T07:15:28;6.80;99.90
11152;DHT22;5630;49.342;10.802;2024-02-04T07:17:54;6.80;99.90
11152;DHT22;5630;49.342;10.802;2024-02-04T07:20:20;6.80;99.90
11152;DHT22;5630;49.342;10.802;2024-02-04T07:22:45;6.80;99.90
11152;DHT22;5630;49.342;10.802;2024-02-04T07:25:11;6.80;99.90
11152;DHT22;5630;49.342;10.802;2024-02-04T07:27:36;6.80;99.90
11152;DHT22;5630;49.342;10.802;2024-02-04T07:30:02;6.80;99.90
11152;DHT22;5630;49.342;10.802;2024-02-04T07:32:29;6.80;99.90
11152;DHT22;5630;49.342;10.802;2024-02-04T07:34:54;6.80;99.90
11152;DHT22;5630;49.342;10.802;2024-02-04T07:37:20;6.90;99.90
11152;DHT22;5630;49.342;10.802;2024-02-04T07:39:45;6.90;99.90
11152;DHT22;5630;49.342;10.802;2024-02-04T07:42:11;6.90;99.90
11152;DHT22;5630;49.342;10.802;2024-02-04T07:44:36;6.90;99.90
11152;DHT22;5630;49.342;10.802;2024-02-04T07:47:02;6.90;99.90
11152;DHT22;5630;49.342;10.802;2024-02-04T07:49:28;6.90;99.90
11152;DHT22;5630;49.342;10.802;2024-02-04T07:51:53;6.90;99.90
11152;DHT22;5630;49.342;10.802;2024-02-04T07:54:19;7.00;99.90
11152;DHT22;5630;49.342;10.802;2024-02-04T07:56:45;7.00;99.90
11152;DHT22;5630;49.342;10.802;2024-02-04T07:59:13;7.00;99.90
11152;DHT22;5630;49.342;10.802;2024-02-04T08:01:39;7.00;99.90
11152;DHT22;5630;49.342;10.802;2024-02-04T08:04:07;7.10;99.90
11152;DHT22;5630;49.342;10.802;2024-02-04T08:06:36;7.10;99.90
11152;DHT22;5630;49.342;10.802;2024-02-04T08:09:03;7.20;99.90
11152;DHT22;5630;49.342;10.802;2024-02-04T08:11:29;7.20;99.90
11152;DHT22;5630;49.342;10.802;2024-02-04T08:13:55;7.20;99.90
11152;DHT22;5630;49.342;10.802;2024-02-04T08:16:21;7.30;99.90
11152;DHT22;5630;49.342;10.802;2024-02-04T08:18:47;7.30;99.90
11152;DHT22;5630;49.342;10.802;2024-02-04T08:21:12;7.60;99.90
11152;DHT22;5630;49.342;10.802;2024-02-04T08:23:38;7.80;99.90
11152;DHT22;5630;49.342;10.802;2024-02-04T08:26:05;7.70;99.90
11152;DHT22;5630;49.342;10.802;2024-02-04T08:28:30;7.60;99.90
11152;DHT22;5630;49.342;10.802;2024-02-04T08:30:56;7.40;99.90
11152;DHT22;5630;49.342;10.802;2024-02-04T08:33:22;7.40;99.90
11152;DHT22;5630;49.342;10.802;2024-02-04T08:35:48;7.40;99.90
11152;DHT22;5630;49.342;10.802;2024-02-04T08:38:14;7.30;99.90
11152;DHT22;5630;49.342;10.802;2024-02-04T08:40:39;7.30;99.90
11152;DHT22;5630;49.342;10.802;2024-02-04T08:43:05;7.20;99.90
11152;DHT22;5630;49.342;10.802;2024-02-04T08:45:30;7.30;99.90
11152;DHT22;5630;49.342;10.802;2024-02-04T08:47:56;7.30;99.90
11152;DHT22;5630;49.342;10.802;2024-02-04T08:50:21;7.30;99.90
11152;DHT22;5630;49.342;10.802;2024-02-04T08:52:47;7.40;99.90
11152;DHT22;5630;49.342;10.802;2024-02-04T08:55:12;7.30;99.90
11152;DHT22;5630;49.342;10.802;2024-02-04T08:57:38;7.40;99.90
11152;DHT22;5630;49.342;10.802;2024-02-04T09:00:05;7.40;99.90
11152;DHT22;5630;49.342;10.802;2024-02-04T09:02:36;7.40;99.90
11152;DHT22;5630;49.342;10.802;2024-02-04T09:05:02;7.40;99.90
11152;DHT22;5630;49.342;10.802;2024-02-04T09:07:28;7.40;99.90
11152;DHT22;5630;49.342;10.802;2024-02-04T09:09:53;7.50;99.90
11152;DHT22;5630;49.342;10.802;2024-02-04T09:12:19;7.40;99.90
11152;DHT22;5630;49.342;10.802;2024-02-04T09:14:44;7.50;99.90
11152;DHT22;5630;49.342;10.802;2024-02-04T09:17:10;7.50;99.90
11152;DHT22;5630;49.342;10.802;2024-02-04T09:19:35;7.60;99.90
11152;DHT22;5630;49.342;10.802;2024-02-04T09:22:01;7.60;99.90
11152;DHT22;5630;49.342;10.802;2024-02-04T09:24:28;7.60;99.90
11152;DHT22;5630;49.342;10.802;2024-02-04T09:26:53;7.70;99.90
11152;DHT22;5630;49.342;10.802;2024-02-04T09:29:19;7.60;99.90
11152;DHT22;5630;49.342;10.802;2024-02-04T09:31:45;7.70;99.90
11152;DHT22;5630;49.342;10.802;2024-02-04T09:34:11;7.70;99.90
11152;DHT22;5630;49.342;10.802;2024-02-04T09:36:37;7.70;99.90
11152;DHT22;5630;49.342;10.802;2024-02-04T09:39:02;7.80;99.90
11152;DHT22;5630;49.342;10.802;2024-02-04T09:41:29;7.70;99.90
11152;DHT22;5630;49.342;10.802;2024-02-04T09:43:55;7.70;99.90
11152;DHT22;5630;49.342;10.802;2024-02-04T09:46:21;7.70;99.90
11152;DHT22;5630;49.342;10.802;2024-02-04T09:48:47;7.70;99.90
11152;DHT22;5630;49.342;10.802;2024-02-04T09:51:14;7.80;99.90
11152;DHT22;5630;49.342;10.802;2024-02-04T09:53:44;7.80;99.90
11152;DHT22;5630;49.342;10.802;2024-02-04T09:56:10;7.80;99.90
11152;DHT22;5630;49.342;10.802;2024-02-04T09:58:36;7.80;99.90
11152;DHT22;5630;49.342;10.802;2024-02-04T10:01:06;7.90;99.90
11152;DHT22;5630;49.342;10.802;2024-02-04T10:03:34;7.90;99.90
11152;DHT22;5630;49.342;10.802;2024-02-04T10:06:00;7.80;99.90
11152;DHT22;5630;49.342;10.802;2024-02-04T10:08:26;7.90;99.90
11152;DHT22;5630;49.342;10.802;2024-02-04T10:10:51;7.80;99.90
11152;DHT22;5630;49.342;10.802;2024-02-04T10:13:17;7.90;99.90
11152;DHT22;5630;49.342;10.802;2024-02-04T10:15:42;8.00;99.90
11152;DHT22;5630;49.342;10.802;2024-02-04T10:18:08;8.00;99.90
11152;DHT22;5630;49.342;10.802;2024-02-04T10:20:34;8.00;99.90
11152;DHT22;5630;49.342;10.802;2024-02-04T10:23:00;8.10;99.90
11152;DHT22;5630;49.342;10.802;2024-02-04T10:25:26;8.10;99.90
11152;DHT22;5630;49.342;10.802;2024-02-04T10:27:53;8.10;99.90
11152;DHT22;5630;49.342;10.802;2024-02-04T10:30:19;8.10;99.90
11152;DHT22;5630;49.342;10.802;2024-02-04T10:32:46;8.10;99.90
11152;DHT22;5630;49.342;10.802;2024-02-04T10:35:12;8.00;99.90
11152;DHT22;5630;49.342;10.802;2024-02-04T10:37:37;8.10;99.90
11152;DHT22;5630;49.342;10.802;2024-02-04T10:40:03;8.10;99.90
11152;DHT22;5630;49.342;10.802;2024-02-04T10:42:29;8.20;99.90
11152;DHT22;5630;49.342;10.802;2024-02-04T10:44:58;8.30;99.90
11152;DHT22;5630;49.342;10.802;2024-02-04T10:47:29;8.30;99.90
11152;DHT22;5630;49.342;10.802;2024-02-04T10:49:57;8.40;99.90
11152;DHT22;5630;49.342;10.802;2024-02-04T10:52:28;8.40;99.90
11152;DHT22;5630;49.342;10.802;2024-02-04T10:54:55;8.40;99.90
11152;DHT22;5630;49.342;10.802;2024-02-04T10:57:21;8.50;99.90
11152;DHT22;5630;49.342;10.802;2024-02-04T10:59:48;8.50;99.90
11152;DHT22;5630;49.342;10.802;2024-02-04T11:02:15;8.50;99.90
11152;DHT22;5630;49.342;10.802;2024-02-04T11:04:42;8.50;99.90
11152;DHT22;5630;49.342;10.802;2024-02-04T11:07:09;8.50;99.90
11152;DHT22;5630;49.342;10.802;2024-02-04T11:09:36;8.50;99.90
11152;DHT22;5630;49.342;10.802;2024-02-04T11:12:06;8.50;99.90
11152;DHT22;5630;49.342;10.802;2024-02-04T11:14:33;8.60;99.90
11152;DHT22;5630;49.342;10.802;2024-02-04T11:25:56;8.50;99.90
11152;DHT22;5630;49.342;10.802;2024-02-04T11:28:22;8.40;99.90
11152;DHT22;5630;49.342;10.802;2024-02-04T11:30:49;8.40;99.90
11152;DHT22;5630;49.342;10.802;2024-02-04T11:33:18;8.40;99.90
11152;DHT22;5630;49.342;10.802;2024-02-04T11:35:44;8.50;99.90
11152;DHT22;5630;49.342;10.802;2024-02-04T11:38:10;8.40;99.90
11152;DHT22;5630;49.342;10.802;2024-02-04T11:40:37;8.50;99.90
11152;DHT22;5630;49.342;10.802;2024-02-04T11:43:13;8.40;99.90
11152;DHT22;5630;49.342;10.802;2024-02-04T11:45:42;8.50;99.90
11152;DHT22;5630;49.342;10.802;2024-02-04T11:48:09;8.50;99.90
11152;DHT22;5630;49.342;10.802;2024-02-04T11:50:36;8.50;99.90
11152;DHT22;5630;49.342;10.802;2024-02-04T11:53:14;8.60;99.90
11152;DHT22;5630;49.342;10.802;2024-02-04T11:55:40;8.60;99.90
11152;DHT22;5630;49.342;10.802;2024-02-04T11:58:07;8.60;99.90
11152;DHT22;5630;49.342;10.802;2024-02-04T12:00:33;8.60;99.90
11152;DHT22;5630;49.342;10.802;2024-02-04T12:03:06;8.60;99.90
11152;DHT22;5630;49.342;10.802;2024-02-04T12:05:35;8.60;99.90
11152;DHT22;5630;49.342;10.802;2024-02-04T12:08:03;8.50;99.90
11152;DHT22;5630;49.342;10.802;2024-02-04T12:10:30;8.60;99.90
11152;DHT22;5630;49.342;10.802;2024-02-04T12:13:00;8.60;99.90
11152;DHT22;5630;49.342;10.802;2024-02-04T12:15:28;8.60;99.90
11152;DHT22;5630;49.342;10.802;2024-02-04T12:17:54;8.60;99.90
11152;DHT22;5630;49.342;10.802;2024-02-04T12:20:19;8.60;99.90
11152;DHT22;5630;49.342;10.802;2024-02-04T12:22:45;8.70;99.90
11152;DHT22;5630;49.342;10.802;2024-02-04T12:25:10;8.70;99.90
11152;DHT22;5630;49.342;10.802;2024-02-04T12:27:36;8.70;99.90
11152;DHT22;5630;49.342;10.802;2024-02-04T12:30:03;8.70;99.90
11152;DHT22;5630;49.342;10.802;2024-02-04T12:32:30;8.80;99.90
11152;DHT22;5630;49.342;10.802;2024-02-04T12:34:56;8.80;99.90
11152;DHT22;5630;49.342;10.802;2024-02-04T12:37:22;8.80;99.90
11152;DHT22;5630;49.342;10.802;2024-02-04T12:39:48;8.70;99.90
11152;DHT22;5630;49.342;10.802;2024-02-04T12:42:16;8.80;99.90
11152;DHT22;5630;49.342;10.802;2024-02-04T12:44:48;8.70;99.90
11152;DHT22;5630;49.342;10.802;2024-02-04T12:47:14;8.80;99.90
11152;DHT22;5630;49.342;10.802;2024-02-04T12:49:40;8.80;99.90
11152;DHT22;5630;49.342;10.802;2024-02-04T12:52:07;8.80;99.90
11152;DHT22;5630;49.342;10.802;2024-02-04T12:54:43;8.80;99.90
11152;DHT22;5630;49.342;10.802;2024-02-04T12:57:09;8.80;99.90
11152;DHT22;5630;49.342;10.802;2024-02-04T12:59:37;8.80;99.90
11152;DHT22;5630;49.342;10.802;2024-02-04T13:02:07;8.70;99.90
11152;DHT22;5630;49.342;10.802;2024-02-04T13:04:40;8.80;99.90
11152;DHT22;5630;49.342;10.802;2024-02-04T13:07:11;8.80;99.90
11152;DHT22;5630;49.342;10.802;2024-02-04T13:09:42;8.90;99.90
11152;DHT22;5630;49.342;10.802;2024-02-04T13:12:09;8.80;99.90
11152;DHT22;5630;49.342;10.802;2024-02-04T13:14:37;8.90;99.90
11152;DHT22;5630;49.342;10.802;2024-02-04T13:17:07;8.90;99.90
11152;DHT22;5630;49.342;10.802;2024-02-04T13:19:37;8.90;99.90
11152;DHT22;5630;49.342;10.802;2024-02-04T13:22:06;8.90;99.90
11152;DHT22;5630;49.342;10.802;2024-02-04T13:24:32;9.00;99.90
11152;DHT22;5630;49.342;10.802;2024-02-04T13:26:58;9.00;99.90
11152;DHT22;5630;49.342;10.802;2024-02-04T13:29:26;9.10;99.90
11152;DHT22;5630;49.342;10.802;2024-02-04T13:31:52;9.10;99.90
11152;DHT22;5630;49.342;10.802;2024-02-04T13:34:17;9.20;99.90
11152;DHT22;5630;49.342;10.802;2024-02-04T13:36:43;9.30;99.90
11152;DHT22;5630;49.342;10.802;2024-02-04T13:39:09;9.30;99.90
11152;DHT22;5630;49.342;10.802;2024-02-04T13:41:35;9.30;99.90
11152;DHT22;5630;49.342;10.802;2024-02-04T13:44:01;9.10;99.90
11152;DHT22;5630;49.342;10.802;2024-02-04T13:46:27;9.20;99.90
11152;DHT22;5630;49.342;10.802;2024-02-04T13:48:53;9.10;99.90
11152;DHT22;5630;49.342;10.802;2024-02-04T13:51:18;9.10;99.90
11152;DHT22;5630;49.342;10.802;2024-02-04T13:53:44;9.10;99.90
11152;DHT22;5630;49.342;10.802;2024-02-04T13:56:09;9.20;99.90
11152;DHT22;5630;49.342;10.802;2024-02-04T13:58:35;9.20;99.90
11152;DHT22;5630;49.342;10.802;2024-02-04T14:01:01;9.20;99.90
11152;DHT22;5630;49.342;10.802;2024-02-04T14:03:26;9.20;99.90
11152;DHT22;5630;49.342;10.802;2024-02-04T14:05:52;9.20;99.90
11152;DHT22;5630;49.342;10.802;2024-02-04T14:08:18;9.20;99.90
11152;DHT22;5630;49.342;10.802;2024-02-04T14:10:43;9.20;99.90
11152;DHT22;5630;49.342;10.802;2024-02-04T14:13:09;9.20;99.90
11152;DHT22;5630;49.342;10.802;2024-02-04T14:15:36;9.10;99.90
11152;DHT22;5630;49.342;10.802;2024-02-04T14:18:02;9.10;99.90
11152;DHT22;5630;49.342;10.802;2024-02-04T14:20:27;9.10;99.90
11152;DHT22;5630;49.342;10.802;2024-02-04T14:22:53;9.10;99.90
11152;DHT22;5630;49.342;10.802;2024-02-04T14:25:19;9.00;99.90
11152;DHT22;5630;49.342;10.802;2024-02-04T14:27:44;9.00;99.90
11152;DHT22;5630;49.342;10.802;2024-02-04T14:30:10;9.00;99.90
11152;DHT22;5630;49.342;10.802;2024-02-04T14:32:36;8.90;99.90
11152;DHT22;5630;49.342;10.802;2024-02-04T14:35:02;8.90;99.90
11152;DHT22;5630;49.342;10.802;2024-02-04T14:37:30;8.90;99.90
11152;DHT22;5630;49.342;10.802;2024-02-04T14:39:57;8.90;99.90
11152;DHT22;5630;49.342;10.802;2024-02-04T14:42:25;8.90;99.90
11152;DHT22;5630;49.342;10.802;2024-02-04T14:44:52;8.90;99.90
11152;DHT22;5630;49.342;10.802;2024-02-04T14:47:17;8.90;99.90
11152;DHT22;5630;49.342;10.802;2024-02-04T14:49:43;8.80;99.90
11152;DHT22;5630;49.342;10.802;2024-02-04T14:52:08;8.80;99.90
11152;DHT22;5630;49.342;10.802;2024-02-04T14:54:34;8.70;99.90
11152;DHT22;5630;49.342;10.802;2024-02-04T14:57:00;8.70;99.90
11152;DHT22;5630;49.342;10.802;2024-02-04T14:59:25;8.70;99.90
11152;DHT22;5630;49.342;10.802;2024-02-04T15:01:51;8.60;99.90
11152;DHT22;5630;49.342;10.802;2024-02-04T15:04:16;8.50;99.90
11152;DHT22;5630;49.342;10.802;2024-02-04T15:06:42;8.60;99.90
11152;DHT22;5630;49.342;10.802;2024-02-04T15:09:08;8.50;99.90
11152;DHT22;5630;49.342;10.802;2024-02-04T15:11:36;8.40;99.90
11152;DHT22;5630;49.342;10.802;2024-02-04T15:14:01;8.40;99.90
11152;DHT22;5630;49.342;10.802;2024-02-04T15:16:27;8.40;99.90
11152;DHT22;5630;49.342;10.802;2024-02-04T15:18:53;8.40;99.90
11152;DHT22;5630;49.342;10.802;2024-02-04T15:21:19;8.40;99.90
11152;DHT22;5630;49.342;10.802;2024-02-04T15:23:45;8.40;99.90
11152;DHT22;5630;49.342;10.802;2024-02-04T15:26:12;8.40;99.90
11152;DHT22;5630;49.342;10.802;2024-02-04T15:28:41;8.40;99.90
11152;DHT22;5630;49.342;10.802;2024-02-04T15:31:07;8.40;99.90
11152;DHT22;5630;49.342;10.802;2024-02-04T15:33:33;8.40;99.90
11152;DHT22;5630;49.342;10.802;2024-02-04T15:35:59;8.40;99.90
11152;DHT22;5630;49.342;10.802;2024-02-04T15:38:25;8.30;99.90
11152;DHT22;5630;49.342;10.802;2024-02-04T15:40:50;8.30;99.90
11152;DHT22;5630;49.342;10.802;2024-02-04T15:43:16;8.30;99.90
11152;DHT22;5630;49.342;10.802;2024-02-04T15:45:42;8.30;99.90
11152;DHT22;5630;49.342;10.802;2024-02-04T15:48:09;8.30;99.90